Carona, Kansas
Current Conditions -  °F | °C
As of 3:55 AM on Sunday 21 Dec 2014 (Local Time) from KPTS Reporting Station
Overcast Overcast  
Wind Chill: 39°   Ceiling: 1600
Heat Index: 43°   Visibility: 7mi
Dew Point: 42°   Wind: 8mph
Humidity: 95%   Direction: 210°SSW
Pressure: 30.1"   Gusts: NA
Location:  37.2661°N, 94.8513°W
Report Text: KPTS 210955Z AUTO 21007KT 7SM OVC016 06/06 A3010 RMK AO2 T00630056
Loading
Personal Weather Stations






























Interactive Weather Map New forecast layout! Learn more

10-Day Weather Forecast

Advertisements
Track Severe Weather on mobile